sensor_id;sensor_type;location;lat;lon;timestamp;P1;durP1;ratioP1;P2;durP2;ratioP2
21503;SDS011;10913;51.992;9.228;2023-02-01T00:01:26;17.77;;;3.90;;
21503;SDS011;10913;51.992;9.228;2023-02-01T00:03:51;19.95;;;4.35;;
21503;SDS011;10913;51.992;9.228;2023-02-01T00:06:17;14.90;;;3.92;;
21503;SDS011;10913;51.992;9.228;2023-02-01T00:08:42;18.00;;;4.03;;
21503;SDS011;10913;51.992;9.228;2023-02-01T00:11:08;14.57;;;3.53;;
21503;SDS011;10913;51.992;9.228;2023-02-01T00:13:36;16.35;;;3.50;;
21503;SDS011;10913;51.992;9.228;2023-02-01T00:16:04;13.45;;;3.33;;
21503;SDS011;10913;51.992;9.228;2023-02-01T00:18:51;16.15;;;3.70;;
21503;SDS011;10913;51.992;9.228;2023-02-01T00:21:23;16.20;;;3.60;;
21503;SDS011;10913;51.992;9.228;2023-02-01T00:23:49;11.38;;;3.50;;
21503;SDS011;10913;51.992;9.228;2023-02-01T00:26:25;14.00;;;3.50;;
21503;SDS011;10913;51.992;9.228;2023-02-01T00:28:55;14.18;;;3.50;;
21503;SDS011;10913;51.992;9.228;2023-02-01T00:31:21;20.13;;;4.20;;
21503;SDS011;10913;51.992;9.228;2023-02-01T00:33:47;18.63;;;4.35;;
21503;SDS011;10913;51.992;9.228;2023-02-01T00:36:13;18.17;;;3.80;;
21503;SDS011;10913;51.992;9.228;2023-02-01T00:38:38;15.95;;;3.72;;
21503;SDS011;10913;51.992;9.228;2023-02-01T00:43:31;22.45;;;3.80;;
21503;SDS011;10913;51.992;9.228;2023-02-01T00:45:57;16.95;;;4.05;;
21503;SDS011;10913;51.992;9.228;2023-02-01T00:48:23;18.20;;;3.55;;
21503;SDS011;10913;51.992;9.228;2023-02-01T00:50:48;17.88;;;3.60;;
21503;SDS011;10913;51.992;9.228;2023-02-01T00:53:14;12.35;;;3.70;;
21503;SDS011;10913;51.992;9.228;2023-02-01T00:55:39;18.90;;;4.13;;
21503;SDS011;10913;51.992;9.228;2023-02-01T00:58:04;16.98;;;3.97;;
21503;SDS011;10913;51.992;9.228;2023-02-01T01:00:31;12.45;;;3.42;;
21503;SDS011;10913;51.992;9.228;2023-02-01T01:02:57;18.52;;;4.22;;
21503;SDS011;10913;51.992;9.228;2023-02-01T01:05:23;19.92;;;3.83;;
21503;SDS011;10913;51.992;9.228;2023-02-01T01:07:48;15.38;;;4.22;;
21503;SDS011;10913;51.992;9.228;2023-02-01T01:10:14;19.63;;;4.28;;
21503;SDS011;10913;51.992;9.228;2023-02-01T01:12:40;20.00;;;4.30;;
21503;SDS011;10913;51.992;9.228;2023-02-01T01:15:06;13.80;;;3.83;;
21503;SDS011;10913;51.992;9.228;2023-02-01T01:17:32;15.40;;;3.30;;
21503;SDS011;10913;51.992;9.228;2023-02-01T01:19:57;20.80;;;3.85;;
21503;SDS011;10913;51.992;9.228;2023-02-01T01:22:22;13.35;;;3.47;;
21503;SDS011;10913;51.992;9.228;2023-02-01T01:24:48;15.55;;;3.72;;
21503;SDS011;10913;51.992;9.228;2023-02-01T01:27:13;16.13;;;4.00;;
21503;SDS011;10913;51.992;9.228;2023-02-01T01:29:39;18.40;;;3.60;;
21503;SDS011;10913;51.992;9.228;2023-02-01T01:32:04;15.45;;;3.67;;
21503;SDS011;10913;51.992;9.228;2023-02-01T01:34:29;21.10;;;4.25;;
21503;SDS011;10913;51.992;9.228;2023-02-01T01:36:55;19.13;;;4.03;;
21503;SDS011;10913;51.992;9.228;2023-02-01T01:39:20;16.50;;;3.90;;
21503;SDS011;10913;51.992;9.228;2023-02-01T01:41:45;17.98;;;3.88;;
21503;SDS011;10913;51.992;9.228;2023-02-01T01:47:14;16.33;;;3.38;;
21503;SDS011;10913;51.992;9.228;2023-02-01T01:49:41;15.00;;;3.67;;
21503;SDS011;10913;51.992;9.228;2023-02-01T01:52:07;15.32;;;3.53;;
21503;SDS011;10913;51.992;9.228;2023-02-01T01:54:46;16.02;;;3.53;;
21503;SDS011;10913;51.992;9.228;2023-02-01T01:57:17;12.90;;;3.17;;
21503;SDS011;10913;51.992;9.228;2023-02-01T01:59:51;15.10;;;3.55;;
21503;SDS011;10913;51.992;9.228;2023-02-01T02:02:24;14.93;;;3.35;;
21503;SDS011;10913;51.992;9.228;2023-02-01T02:04:50;15.32;;;3.90;;
21503;SDS011;10913;51.992;9.228;2023-02-01T02:07:20;19.10;;;4.13;;
21503;SDS011;10913;51.992;9.228;2023-02-01T02:09:49;18.88;;;3.85;;
21503;SDS011;10913;51.992;9.228;2023-02-01T02:12:14;14.48;;;3.63;;
21503;SDS011;10913;51.992;9.228;2023-02-01T02:14:40;12.45;;;3.33;;
21503;SDS011;10913;51.992;9.228;2023-02-01T02:23:03;14.77;;;3.58;;
21503;SDS011;10913;51.992;9.228;2023-02-01T02:34:45;16.77;;;4.97;;
21503;SDS011;10913;51.992;9.228;2023-02-01T02:40:15;16.50;;;4.53;;
21503;SDS011;10913;51.992;9.228;2023-02-01T02:46:09;18.52;;;4.13;;
21503;SDS011;10913;51.992;9.228;2023-02-01T02:49:05;17.25;;;3.90;;
21503;SDS011;10913;51.992;9.228;2023-02-01T02:54:55;18.38;;;4.35;;
21503;SDS011;10913;51.992;9.228;2023-02-01T02:57:30;18.83;;;4.20;;
21503;SDS011;10913;51.992;9.228;2023-02-01T03:00:15;19.65;;;4.10;;
21503;SDS011;10913;51.992;9.228;2023-02-01T03:03:02;17.83;;;4.30;;
21503;SDS011;10913;51.992;9.228;2023-02-01T03:05:47;20.13;;;4.65;;
21503;SDS011;10913;51.992;9.228;2023-02-01T03:08:27;14.20;;;4.03;;
21503;SDS011;10913;51.992;9.228;2023-02-01T03:23:58;16.10;;;4.43;;
21503;SDS011;10913;51.992;9.228;2023-02-01T03:26:28;22.33;;;5.28;;
21503;SDS011;10913;51.992;9.228;2023-02-01T03:28:56;16.58;;;4.82;;
21503;SDS011;10913;51.992;9.228;2023-02-01T03:31:27;16.52;;;5.00;;
21503;SDS011;10913;51.992;9.228;2023-02-01T03:33:54;20.75;;;5.00;;
21503;SDS011;10913;51.992;9.228;2023-02-01T03:36:35;18.67;;;5.53;;
21503;SDS011;10913;51.992;9.228;2023-02-01T03:39:17;13.48;;;4.20;;
21503;SDS011;10913;51.992;9.228;2023-02-01T03:41:53;13.48;;;3.95;;
21503;SDS011;10913;51.992;9.228;2023-02-01T03:44:30;17.88;;;4.53;;
21503;SDS011;10913;51.992;9.228;2023-02-01T03:49:49;20.98;;;4.60;;
21503;SDS011;10913;51.992;9.228;2023-02-01T03:52:23;23.35;;;4.88;;
21503;SDS011;10913;51.992;9.228;2023-02-01T03:54:56;18.00;;;4.10;;
21503;SDS011;10913;51.992;9.228;2023-02-01T03:57:25;15.40;;;3.83;;
21503;SDS011;10913;51.992;9.228;2023-02-01T03:59:54;16.80;;;3.70;;
21503;SDS011;10913;51.992;9.228;2023-02-01T04:02:30;16.48;;;3.80;;
21503;SDS011;10913;51.992;9.228;2023-02-01T04:04:56;14.93;;;3.55;;
21503;SDS011;10913;51.992;9.228;2023-02-01T04:07:21;13.40;;;3.80;;
21503;SDS011;10913;51.992;9.228;2023-02-01T04:09:46;15.27;;;3.42;;
21503;SDS011;10913;51.992;9.228;2023-02-01T04:12:12;17.02;;;4.07;;
21503;SDS011;10913;51.992;9.228;2023-02-01T04:14:37;15.07;;;3.35;;
21503;SDS011;10913;51.992;9.228;2023-02-01T04:17:02;15.63;;;3.78;;
21503;SDS011;10913;51.992;9.228;2023-02-01T04:19:28;17.63;;;4.00;;
21503;SDS011;10913;51.992;9.228;2023-02-01T04:21:53;13.57;;;3.83;;
21503;SDS011;10913;51.992;9.228;2023-02-01T04:24:18;14.90;;;3.35;;
21503;SDS011;10913;51.992;9.228;2023-02-01T04:26:44;13.48;;;3.60;;
21503;SDS011;10913;51.992;9.228;2023-02-01T04:29:09;14.15;;;4.20;;
21503;SDS011;10913;51.992;9.228;2023-02-01T04:31:35;19.30;;;4.38;;
21503;SDS011;10913;51.992;9.228;2023-02-01T04:34:01;11.77;;;3.40;;
21503;SDS011;10913;51.992;9.228;2023-02-01T04:36:26;13.07;;;3.92;;
21503;SDS011;10913;51.992;9.228;2023-02-01T04:38:52;13.15;;;4.10;;
21503;SDS011;10913;51.992;9.228;2023-02-01T04:41:18;19.00;;;3.80;;
21503;SDS011;10913;51.992;9.228;2023-02-01T04:43:47;16.05;;;3.50;;
21503;SDS011;10913;51.992;9.228;2023-02-01T04:46:14;19.17;;;4.75;;
21503;SDS011;10913;51.992;9.228;2023-02-01T04:48:40;12.60;;;3.60;;
21503;SDS011;10913;51.992;9.228;2023-02-01T04:51:05;18.17;;;4.03;;
21503;SDS011;10913;51.992;9.228;2023-02-01T04:53:31;21.67;;;3.90;;
21503;SDS011;10913;51.992;9.228;2023-02-01T04:55:56;16.15;;;4.00;;
21503;SDS011;10913;51.992;9.228;2023-02-01T04:58:22;13.95;;;3.42;;
21503;SDS011;10913;51.992;9.228;2023-02-01T05:00:47;16.27;;;3.75;;
21503;SDS011;10913;51.992;9.228;2023-02-01T05:03:13;22.88;;;4.13;;
21503;SDS011;10913;51.992;9.228;2023-02-01T05:05:38;17.25;;;3.53;;
21503;SDS011;10913;51.992;9.228;2023-02-01T05:08:04;16.83;;;4.47;;
21503;SDS011;10913;51.992;9.228;2023-02-01T05:10:29;14.13;;;3.70;;
21503;SDS011;10913;51.992;9.228;2023-02-01T05:12:54;15.02;;;3.55;;
21503;SDS011;10913;51.992;9.228;2023-02-01T05:15:38;16.97;;;3.80;;
21503;SDS011;10913;51.992;9.228;2023-02-01T05:18:04;18.73;;;3.75;;
21503;SDS011;10913;51.992;9.228;2023-02-01T05:20:29;16.80;;;4.15;;
21503;SDS011;10913;51.992;9.228;2023-02-01T05:22:55;17.70;;;3.90;;
21503;SDS011;10913;51.992;9.228;2023-02-01T05:25:20;15.70;;;3.30;;
21503;SDS011;10913;51.992;9.228;2023-02-01T05:27:45;14.43;;;3.78;;
21503;SDS011;10913;51.992;9.228;2023-02-01T05:30:11;16.35;;;3.70;;
21503;SDS011;10913;51.992;9.228;2023-02-01T05:32:37;12.65;;;3.58;;
21503;SDS011;10913;51.992;9.228;2023-02-01T05:35:02;11.10;;;3.40;;
21503;SDS011;10913;51.992;9.228;2023-02-01T05:37:28;15.57;;;3.78;;
21503;SDS011;10913;51.992;9.228;2023-02-01T05:39:53;13.43;;;4.05;;
21503;SDS011;10913;51.992;9.228;2023-02-01T05:42:21;12.07;;;3.80;;
21503;SDS011;10913;51.992;9.228;2023-02-01T05:44:46;14.10;;;3.70;;
21503;SDS011;10913;51.992;9.228;2023-02-01T05:47:12;15.77;;;4.38;;
21503;SDS011;10913;51.992;9.228;2023-02-01T05:49:37;17.77;;;3.75;;
21503;SDS011;10913;51.992;9.228;2023-02-01T05:52:03;12.15;;;3.60;;
21503;SDS011;10913;51.992;9.228;2023-02-01T05:54:29;17.50;;;3.40;;
21503;SDS011;10913;51.992;9.228;2023-02-01T05:56:54;14.75;;;3.65;;
21503;SDS011;10913;51.992;9.228;2023-02-01T05:59:20;11.25;;;3.67;;
21503;SDS011;10913;51.992;9.228;2023-02-01T06:01:45;13.10;;;3.55;;
21503;SDS011;10913;51.992;9.228;2023-02-01T06:04:10;12.25;;;3.45;;
21503;SDS011;10913;51.992;9.228;2023-02-01T06:06:36;12.48;;;3.60;;
21503;SDS011;10913;51.992;9.228;2023-02-01T06:09:02;12.05;;;3.20;;
21503;SDS011;10913;51.992;9.228;2023-02-01T06:11:28;11.95;;;3.75;;
21503;SDS011;10913;51.992;9.228;2023-02-01T06:13:54;11.52;;;3.90;;
21503;SDS011;10913;51.992;9.228;2023-02-01T06:16:20;16.73;;;4.03;;
21503;SDS011;10913;51.992;9.228;2023-02-01T06:18:46;13.73;;;3.95;;
21503;SDS011;10913;51.992;9.228;2023-02-01T06:21:11;16.15;;;3.80;;
21503;SDS011;10913;51.992;9.228;2023-02-01T06:23:38;15.82;;;3.63;;
21503;SDS011;10913;51.992;9.228;2023-02-01T06:26:04;14.23;;;4.10;;
21503;SDS011;10913;51.992;9.228;2023-02-01T06:28:32;17.98;;;4.32;;
21503;SDS011;10913;51.992;9.228;2023-02-01T06:31:02;16.65;;;3.70;;
21503;SDS011;10913;51.992;9.228;2023-02-01T06:33:28;15.40;;;3.80;;
21503;SDS011;10913;51.992;9.228;2023-02-01T06:35:57;15.43;;;4.20;;
21503;SDS011;10913;51.992;9.228;2023-02-01T06:38:24;18.50;;;4.47;;
21503;SDS011;10913;51.992;9.228;2023-02-01T06:40:54;17.08;;;3.88;;
21503;SDS011;10913;51.992;9.228;2023-02-01T06:43:24;23.48;;;4.85;;
21503;SDS011;10913;51.992;9.228;2023-02-01T06:45:51;15.70;;;4.10;;
21503;SDS011;10913;51.992;9.228;2023-02-01T06:48:17;15.65;;;4.30;;
21503;SDS011;10913;51.992;9.228;2023-02-01T06:50:43;17.17;;;3.63;;
21503;SDS011;10913;51.992;9.228;2023-02-01T06:53:08;16.85;;;4.13;;
21503;SDS011;10913;51.992;9.228;2023-02-01T06:55:34;16.35;;;3.92;;
21503;SDS011;10913;51.992;9.228;2023-02-01T06:57:59;23.15;;;4.43;;
21503;SDS011;10913;51.992;9.228;2023-02-01T07:00:27;13.85;;;4.10;;
21503;SDS011;10913;51.992;9.228;2023-02-01T07:02:53;18.30;;;3.90;;
21503;SDS011;10913;51.992;9.228;2023-02-01T07:05:19;17.35;;;4.00;;
21503;SDS011;10913;51.992;9.228;2023-02-01T07:07:44;16.90;;;4.72;;
21503;SDS011;10913;51.992;9.228;2023-02-01T07:10:09;12.95;;;3.78;;
21503;SDS011;10913;51.992;9.228;2023-02-01T07:12:35;17.73;;;4.10;;
21503;SDS011;10913;51.992;9.228;2023-02-01T07:15:01;14.15;;;3.95;;
21503;SDS011;10913;51.992;9.228;2023-02-01T07:17:27;18.00;;;4.07;;
21503;SDS011;10913;51.992;9.228;2023-02-01T07:19:54;17.23;;;4.22;;
21503;SDS011;10913;51.992;9.228;2023-02-01T07:22:20;13.95;;;3.95;;
21503;SDS011;10913;51.992;9.228;2023-02-01T07:24:45;17.83;;;4.60;;
21503;SDS011;10913;51.992;9.228;2023-02-01T07:27:10;16.67;;;3.80;;
21503;SDS011;10913;51.992;9.228;2023-02-01T07:29:36;16.52;;;4.18;;
21503;SDS011;10913;51.992;9.228;2023-02-01T07:32:01;18.52;;;4.40;;
21503;SDS011;10913;51.992;9.228;2023-02-01T07:34:27;15.75;;;4.05;;
21503;SDS011;10913;51.992;9.228;2023-02-01T07:36:53;17.50;;;3.67;;
21503;SDS011;10913;51.992;9.228;2023-02-01T07:39:18;16.80;;;3.58;;
21503;SDS011;10913;51.992;9.228;2023-02-01T07:41:44;19.83;;;4.35;;
21503;SDS011;10913;51.992;9.228;2023-02-01T07:44:11;18.80;;;4.35;;
21503;SDS011;10913;51.992;9.228;2023-02-01T07:46:36;19.08;;;4.22;;
21503;SDS011;10913;51.992;9.228;2023-02-01T07:49:03;15.55;;;3.58;;
21503;SDS011;10913;51.992;9.228;2023-02-01T07:51:28;13.95;;;3.58;;
21503;SDS011;10913;51.992;9.228;2023-02-01T07:53:54;17.02;;;3.92;;
21503;SDS011;10913;51.992;9.228;2023-02-01T07:56:19;16.83;;;3.58;;
21503;SDS011;10913;51.992;9.228;2023-02-01T07:58:51;19.50;;;4.18;;
21503;SDS011;10913;51.992;9.228;2023-02-01T08:01:18;16.95;;;3.70;;
21503;SDS011;10913;51.992;9.228;2023-02-01T08:04:04;16.20;;;3.53;;
21503;SDS011;10913;51.992;9.228;2023-02-01T08:06:31;11.50;;;3.42;;
21503;SDS011;10913;51.992;9.228;2023-02-01T08:08:59;13.60;;;3.90;;
21503;SDS011;10913;51.992;9.228;2023-02-01T08:11:26;16.58;;;3.67;;
21503;SDS011;10913;51.992;9.228;2023-02-01T08:13:51;18.60;;;3.90;;
21503;SDS011;10913;51.992;9.228;2023-02-01T08:16:17;13.10;;;3.20;;
21503;SDS011;10913;51.992;9.228;2023-02-01T08:18:44;14.95;;;3.95;;
21503;SDS011;10913;51.992;9.228;2023-02-01T08:21:11;17.77;;;4.07;;
21503;SDS011;10913;51.992;9.228;2023-02-01T08:23:39;17.17;;;3.83;;
21503;SDS011;10913;51.992;9.228;2023-02-01T08:28:31;16.23;;;4.22;;
21503;SDS011;10913;51.992;9.228;2023-02-01T08:30:57;15.13;;;3.60;;
21503;SDS011;10913;51.992;9.228;2023-02-01T08:33:22;17.17;;;4.00;;
21503;SDS011;10913;51.992;9.228;2023-02-01T08:35:47;17.25;;;3.33;;
21503;SDS011;10913;51.992;9.228;2023-02-01T08:38:13;19.27;;;4.05;;
21503;SDS011;10913;51.992;9.228;2023-02-01T08:40:38;14.88;;;3.67;;
21503;SDS011;10913;51.992;9.228;2023-02-01T08:43:06;18.67;;;4.15;;
21503;SDS011;10913;51.992;9.228;2023-02-01T08:45:32;15.77;;;3.88;;
21503;SDS011;10913;51.992;9.228;2023-02-01T08:47:58;19.80;;;4.22;;
21503;SDS011;10913;51.992;9.228;2023-02-01T08:50:24;15.68;;;3.83;;
21503;SDS011;10913;51.992;9.228;2023-02-01T08:52:50;13.82;;;3.58;;
21503;SDS011;10913;51.992;9.228;2023-02-01T08:55:15;18.45;;;4.10;;
21503;SDS011;10913;51.992;9.228;2023-02-01T08:57:41;13.50;;;3.25;;
21503;SDS011;10913;51.992;9.228;2023-02-01T09:00:07;15.85;;;3.90;;
21503;SDS011;10913;51.992;9.228;2023-02-01T09:02:35;13.52;;;3.15;;
21503;SDS011;10913;51.992;9.228;2023-02-01T09:05:01;14.70;;;3.83;;
21503;SDS011;10913;51.992;9.228;2023-02-01T09:07:26;12.65;;;3.50;;
21503;SDS011;10913;51.992;9.228;2023-02-01T09:09:51;13.60;;;3.65;;
21503;SDS011;10913;51.992;9.228;2023-02-01T09:12:19;17.90;;;4.03;;
21503;SDS011;10913;51.992;9.228;2023-02-01T09:14:45;15.05;;;3.50;;
21503;SDS011;10913;51.992;9.228;2023-02-01T09:17:10;13.05;;;3.83;;
21503;SDS011;10913;51.992;9.228;2023-02-01T09:19:35;17.00;;;3.65;;
21503;SDS011;10913;51.992;9.228;2023-02-01T09:22:01;17.77;;;4.07;;
21503;SDS011;10913;51.992;9.228;2023-02-01T09:24:26;12.07;;;3.60;;
21503;SDS011;10913;51.992;9.228;2023-02-01T09:26:52;10.35;;;3.03;;
21503;SDS011;10913;51.992;9.228;2023-02-01T09:29:17;16.60;;;3.72;;
21503;SDS011;10913;51.992;9.228;2023-02-01T09:31:43;13.98;;;3.60;;
21503;SDS011;10913;51.992;9.228;2023-02-01T09:34:08;15.77;;;3.90;;
21503;SDS011;10913;51.992;9.228;2023-02-01T09:36:34;12.77;;;3.60;;
21503;SDS011;10913;51.992;9.228;2023-02-01T09:39:00;10.18;;;3.30;;
21503;SDS011;10913;51.992;9.228;2023-02-01T09:46:57;14.88;;;3.90;;
21503;SDS011;10913;51.992;9.228;2023-02-01T09:49:26;14.00;;;3.22;;
21503;SDS011;10913;51.992;9.228;2023-02-01T09:51:55;17.40;;;4.00;;
21503;SDS011;10913;51.992;9.228;2023-02-01T09:54:22;14.95;;;3.75;;
21503;SDS011;10913;51.992;9.228;2023-02-01T09:56:55;15.05;;;3.83;;
21503;SDS011;10913;51.992;9.228;2023-02-01T09:59:40;9.48;;;3.15;;
21503;SDS011;10913;51.992;9.228;2023-02-01T10:02:26;14.98;;;3.70;;
21503;SDS011;10913;51.992;9.228;2023-02-01T10:07:29;17.02;;;3.50;;
21503;SDS011;10913;51.992;9.228;2023-02-01T10:13:05;13.57;;;3.00;;
21503;SDS011;10913;51.992;9.228;2023-02-01T10:28:43;19.25;;;4.40;;
21503;SDS011;10913;51.992;9.228;2023-02-01T10:31:13;10.85;;;2.92;;
21503;SDS011;10913;51.992;9.228;2023-02-01T10:33:41;15.43;;;3.75;;
21503;SDS011;10913;51.992;9.228;2023-02-01T10:36:25;12.65;;;3.40;;
21503;SDS011;10913;51.992;9.228;2023-02-01T10:38:57;14.98;;;3.72;;
21503;SDS011;10913;51.992;9.228;2023-02-01T10:41:24;10.15;;;3.03;;
21503;SDS011;10913;51.992;9.228;2023-02-01T10:43:56;14.30;;;3.40;;
21503;SDS011;10913;51.992;9.228;2023-02-01T10:46:25;12.63;;;2.95;;
21503;SDS011;10913;51.992;9.228;2023-02-01T10:48:50;12.68;;;3.65;;
21503;SDS011;10913;51.992;9.228;2023-02-01T10:51:24;13.45;;;3.45;;
21503;SDS011;10913;51.992;9.228;2023-02-01T10:53:55;15.40;;;3.80;;
21503;SDS011;10913;51.992;9.228;2023-02-01T10:56:26;16.02;;;4.18;;
21503;SDS011;10913;51.992;9.228;2023-02-01T10:58:59;17.77;;;3.60;;
21503;SDS011;10913;51.992;9.228;2023-02-01T11:01:42;12.73;;;3.40;;
21503;SDS011;10913;51.992;9.228;2023-02-01T11:04:11;21.05;;;3.90;;
21503;SDS011;10913;51.992;9.228;2023-02-01T11:06:39;18.10;;;3.92;;
21503;SDS011;10913;51.992;9.228;2023-02-01T11:11:32;16.45;;;3.88;;
21503;SDS011;10913;51.992;9.228;2023-02-01T11:14:20;15.38;;;4.20;;
21503;SDS011;10913;51.992;9.228;2023-02-01T11:17:15;15.50;;;3.90;;
21503;SDS011;10913;51.992;9.228;2023-02-01T11:19:56;15.68;;;3.60;;
21503;SDS011;10913;51.992;9.228;2023-02-01T11:22:26;14.88;;;4.32;;
21503;SDS011;10913;51.992;9.228;2023-02-01T11:24:53;10.48;;;3.38;;
21503;SDS011;10913;51.992;9.228;2023-02-01T11:27:20;9.65;;;3.20;;
21503;SDS011;10913;51.992;9.228;2023-02-01T11:29:49;12.73;;;3.45;;
21503;SDS011;10913;51.992;9.228;2023-02-01T11:32:17;15.70;;;3.83;;
21503;SDS011;10913;51.992;9.228;2023-02-01T11:37:32;14.27;;;3.47;;
21503;SDS011;10913;51.992;9.228;2023-02-01T11:40:02;14.60;;;3.45;;
21503;SDS011;10913;51.992;9.228;2023-02-01T11:42:37;17.88;;;4.18;;
21503;SDS011;10913;51.992;9.228;2023-02-01T11:45:29;16.98;;;3.70;;
21503;SDS011;10913;51.992;9.228;2023-02-01T11:47:56;18.10;;;3.75;;
21503;SDS011;10913;51.992;9.228;2023-02-01T12:07:11;16.05;;;4.32;;
21503;SDS011;10913;51.992;9.228;2023-02-01T12:21:24;17.83;;;3.92;;
21503;SDS011;10913;51.992;9.228;2023-02-01T12:37:21;14.40;;;4.45;;
21503;SDS011;10913;51.992;9.228;2023-02-01T12:42:56;12.48;;;4.10;;
21503;SDS011;10913;51.992;9.228;2023-02-01T12:45:30;15.10;;;4.50;;
21503;SDS011;10913;51.992;9.228;2023-02-01T12:51:28;15.00;;;4.00;;
21503;SDS011;10913;51.992;9.228;2023-02-01T12:59:13;15.63;;;4.88;;
21503;SDS011;10913;51.992;9.228;2023-02-01T13:02:01;13.15;;;4.88;;
21503;SDS011;10913;51.992;9.228;2023-02-01T13:04:41;11.25;;;4.85;;
21503;SDS011;10913;51.992;9.228;2023-02-01T13:07:37;12.80;;;3.90;;
21503;SDS011;10913;51.992;9.228;2023-02-01T13:10:13;12.02;;;4.18;;
21503;SDS011;10913;51.992;9.228;2023-02-01T13:12:47;17.17;;;5.15;;
21503;SDS011;10913;51.992;9.228;2023-02-01T13:15:20;11.43;;;4.05;;
21503;SDS011;10913;51.992;9.228;2023-02-01T13:17:50;10.02;;;3.97;;
21503;SDS011;10913;51.992;9.228;2023-02-01T13:20:32;12.18;;;5.50;;
21503;SDS011;10913;51.992;9.228;2023-02-01T13:25:40;8.68;;;3.50;;
21503;SDS011;10913;51.992;9.228;2023-02-01T13:28:14;9.93;;;3.53;;
21503;SDS011;10913;51.992;9.228;2023-02-01T13:41:36;7.32;;;2.85;;
21503;SDS011;10913;51.992;9.228;2023-02-01T13:44:28;9.55;;;3.60;;
21503;SDS011;10913;51.992;9.228;2023-02-01T13:49:48;10.20;;;3.60;;
21503;SDS011;10913;51.992;9.228;2023-02-01T13:52:22;10.52;;;3.85;;
21503;SDS011;10913;51.992;9.228;2023-02-01T13:55:00;9.10;;;3.75;;
21503;SDS011;10913;51.992;9.228;2023-02-01T13:57:34;10.40;;;3.80;;
21503;SDS011;10913;51.992;9.228;2023-02-01T14:00:45;11.45;;;3.70;;
21503;SDS011;10913;51.992;9.228;2023-02-01T14:13:32;8.70;;;3.00;;
21503;SDS011;10913;51.992;9.228;2023-02-01T14:27:15;11.18;;;3.38;;
21503;SDS011;10913;51.992;9.228;2023-02-01T14:29:30;11.18;;;3.60;;
21503;SDS011;10913;51.992;9.228;2023-02-01T14:32:16;10.25;;;3.28;;
21503;SDS011;10913;51.992;9.228;2023-02-01T14:42:33;8.00;;;2.78;;
21503;SDS011;10913;51.992;9.228;2023-02-01T14:47:48;7.43;;;1.92;;
21503;SDS011;10913;51.992;9.228;2023-02-01T14:55:36;7.07;;;2.30;;
21503;SDS011;10913;51.992;9.228;2023-02-01T14:58:42;7.60;;;2.40;;
21503;SDS011;10913;51.992;9.228;2023-02-01T15:11:52;5.97;;;2.50;;
21503;SDS011;10913;51.992;9.228;2023-02-01T15:14:18;9.50;;;2.35;;
21503;SDS011;10913;51.992;9.228;2023-02-01T15:16:43;9.95;;;2.10;;
21503;SDS011;10913;51.992;9.228;2023-02-01T15:19:14;6.75;;;2.28;;
21503;SDS011;10913;51.992;9.228;2023-02-01T15:21:44;7.72;;;2.13;;
21503;SDS011;10913;51.992;9.228;2023-02-01T15:26:45;8.02;;;2.70;;
21503;SDS011;10913;51.992;9.228;2023-02-01T15:29:12;7.03;;;2.28;;
21503;SDS011;10913;51.992;9.228;2023-02-01T15:31:39;5.82;;;1.73;;
21503;SDS011;10913;51.992;9.228;2023-02-01T15:34:10;4.75;;;1.80;;
21503;SDS011;10913;51.992;9.228;2023-02-01T15:36:36;9.68;;;5.05;;
21503;SDS011;10913;51.992;9.228;2023-02-01T15:41:47;6.38;;;1.60;;
21503;SDS011;10913;51.992;9.228;2023-02-01T15:49:29;5.50;;;1.75;;
21503;SDS011;10913;51.992;9.228;2023-02-01T15:54:30;7.38;;;2.17;;
21503;SDS011;10913;51.992;9.228;2023-02-01T15:57:03;8.15;;;2.50;;
21503;SDS011;10913;51.992;9.228;2023-02-01T15:59:43;10.70;;;5.22;;
21503;SDS011;10913;51.992;9.228;2023-02-01T16:04:59;13.55;;;2.13;;
21503;SDS011;10913;51.992;9.228;2023-02-01T16:07:28;8.05;;;1.98;;
21503;SDS011;10913;51.992;9.228;2023-02-01T16:09:56;6.70;;;2.10;;
21503;SDS011;10913;51.992;9.228;2023-02-01T16:14:59;7.40;;;2.13;;
21503;SDS011;10913;51.992;9.228;2023-02-01T16:17:25;10.00;;;2.47;;
21503;SDS011;10913;51.992;9.228;2023-02-01T16:19:50;7.40;;;2.40;;
21503;SDS011;10913;51.992;9.228;2023-02-01T16:22:16;11.52;;;3.17;;
21503;SDS011;10913;51.992;9.228;2023-02-01T16:24:41;9.15;;;2.40;;
21503;SDS011;10913;51.992;9.228;2023-02-01T16:27:07;9.18;;;2.40;;
21503;SDS011;10913;51.992;9.228;2023-02-01T16:29:32;13.40;;;2.60;;
21503;SDS011;10913;51.992;9.228;2023-02-01T16:31:58;8.48;;;2.28;;
21503;SDS011;10913;51.992;9.228;2023-02-01T16:34:24;7.80;;;2.28;;
21503;SDS011;10913;51.992;9.228;2023-02-01T16:36:49;8.63;;;2.20;;
21503;SDS011;10913;51.992;9.228;2023-02-01T16:39:17;11.95;;;3.40;;
21503;SDS011;10913;51.992;9.228;2023-02-01T16:41:43;11.80;;;2.92;;
21503;SDS011;10913;51.992;9.228;2023-02-01T16:44:10;8.00;;;2.55;;
21503;SDS011;10913;51.992;9.228;2023-02-01T16:46:38;12.57;;;2.88;;
21503;SDS011;10913;51.992;9.228;2023-02-01T16:49:08;8.35;;;2.78;;
21503;SDS011;10913;51.992;9.228;2023-02-01T16:51:51;10.77;;;2.33;;
21503;SDS011;10913;51.992;9.228;2023-02-01T16:54:20;14.07;;;3.15;;
21503;SDS011;10913;51.992;9.228;2023-02-01T16:56:46;12.15;;;2.80;;
21503;SDS011;10913;51.992;9.228;2023-02-01T16:59:11;11.48;;;3.33;;
21503;SDS011;10913;51.992;9.228;2023-02-01T17:01:37;12.10;;;2.88;;
21503;SDS011;10913;51.992;9.228;2023-02-01T17:04:03;11.15;;;2.75;;
21503;SDS011;10913;51.992;9.228;2023-02-01T17:06:29;12.18;;;3.20;;
21503;SDS011;10913;51.992;9.228;2023-02-01T17:08:57;10.75;;;3.03;;
21503;SDS011;10913;51.992;9.228;2023-02-01T17:11:24;7.82;;;2.30;;
21503;SDS011;10913;51.992;9.228;2023-02-01T17:13:50;9.52;;;2.25;;
21503;SDS011;10913;51.992;9.228;2023-02-01T17:18:40;6.68;;;2.00;;
21503;SDS011;10913;51.992;9.228;2023-02-01T17:21:06;8.40;;;2.00;;
21503;SDS011;10913;51.992;9.228;2023-02-01T17:23:34;5.68;;;1.80;;
21503;SDS011;10913;51.992;9.228;2023-02-01T17:25:59;11.13;;;2.00;;
21503;SDS011;10913;51.992;9.228;2023-02-01T17:28:26;6.03;;;2.10;;
21503;SDS011;10913;51.992;9.228;2023-02-01T17:30:51;8.70;;;1.90;;
21503;SDS011;10913;51.992;9.228;2023-02-01T17:33:22;7.18;;;1.90;;
21503;SDS011;10913;51.992;9.228;2023-02-01T17:35:49;6.28;;;1.90;;
21503;SDS011;10913;51.992;9.228;2023-02-01T17:38:15;11.40;;;3.67;;
21503;SDS011;10913;51.992;9.228;2023-02-01T17:40:41;9.77;;;3.10;;
21503;SDS011;10913;51.992;9.228;2023-02-01T17:43:14;11.30;;;4.38;;
21503;SDS011;10913;51.992;9.228;2023-02-01T17:45:42;15.88;;;4.05;;
21503;SDS011;10913;51.992;9.228;2023-02-01T17:48:15;13.43;;;2.92;;
21503;SDS011;10913;51.992;9.228;2023-02-01T17:50:41;13.52;;;3.55;;
21503;SDS011;10913;51.992;9.228;2023-02-01T17:53:07;12.13;;;3.20;;
21503;SDS011;10913;51.992;9.228;2023-02-01T17:55:36;15.15;;;3.10;;
21503;SDS011;10913;51.992;9.228;2023-02-01T17:58:02;15.75;;;2.97;;
21503;SDS011;10913;51.992;9.228;2023-02-01T18:00:28;13.95;;;3.58;;
21503;SDS011;10913;51.992;9.228;2023-02-01T18:02:53;13.55;;;2.85;;
21503;SDS011;10913;51.992;9.228;2023-02-01T18:05:25;20.00;;;3.35;;
21503;SDS011;10913;51.992;9.228;2023-02-01T18:07:57;17.40;;;3.22;;
21503;SDS011;10913;51.992;9.228;2023-02-01T18:10:23;19.13;;;3.80;;
21503;SDS011;10913;51.992;9.228;2023-02-01T18:12:48;15.18;;;3.60;;
21503;SDS011;10913;51.992;9.228;2023-02-01T18:17:40;14.15;;;2.42;;
21503;SDS011;10913;51.992;9.228;2023-02-01T18:20:06;12.63;;;2.75;;
21503;SDS011;10913;51.992;9.228;2023-02-01T18:22:32;9.93;;;2.75;;
21503;SDS011;10913;51.992;9.228;2023-02-01T18:24:57;16.63;;;3.33;;